createdAt,value
2018-06-24T00:00:35.000Z,13.55
2018-06-24T00:03:05.505Z,13.41
2018-06-24T00:05:36.156Z,13.34
2018-06-24T00:08:06.902Z,13.33
2018-06-24T00:10:37.880Z,13.27
2018-06-24T00:13:08.694Z,13.40
2018-06-24T00:15:39.470Z,13.50
2018-06-24T00:18:10.286Z,13.51
2018-06-24T00:20:40.950Z,13.26
2018-06-24T00:23:11.801Z,13.25
2018-06-24T00:25:42.340Z,13.21
2018-06-24T00:28:12.451Z,13.22
2018-06-24T00:30:43.319Z,13.22
2018-06-24T00:33:13.885Z,13.10
2018-06-24T00:35:44.026Z,13.05
2018-06-24T00:38:14.990Z,12.99
2018-06-24T00:40:45.831Z,12.93
2018-06-24T00:43:16.820Z,12.73
2018-06-24T00:45:47.679Z,12.71
2018-06-24T00:48:18.419Z,12.78
2018-06-24T00:50:48.728Z,12.79
2018-06-24T00:53:20.725Z,12.66
2018-06-24T00:55:51.744Z,12.73
2018-06-24T00:58:22.549Z,12.75
2018-06-24T01:00:53.294Z,12.49
2018-06-24T01:03:23.777Z,12.44
2018-06-24T01:05:54.641Z,12.50
2018-06-24T01:08:25.548Z,12.34
2018-06-24T01:10:56.080Z,12.42
2018-06-24T01:13:26.949Z,12.60
2018-06-24T01:15:57.904Z,12.81
2018-06-24T01:18:28.175Z,12.68
2018-06-24T01:20:58.991Z,12.63
2018-06-24T01:23:29.734Z,12.68
2018-06-24T01:26:00.298Z,12.60
2018-06-24T01:28:30.258Z,12.55
2018-06-24T01:31:00.392Z,12.37
2018-06-24T01:33:30.857Z,12.19
2018-06-24T01:36:01.857Z,12.16
2018-06-24T01:38:32.616Z,12.08
2018-06-24T01:41:03.099Z,12.16
2018-06-24T01:43:33.725Z,12.31
2018-06-24T01:46:04.327Z,12.47
2018-06-24T01:48:34.840Z,12.62
2018-06-24T01:51:05.435Z,12.71
2018-06-24T01:53:35.918Z,12.64
2018-06-24T01:56:06.642Z,12.60
2018-06-24T01:58:37.453Z,12.82
2018-06-24T02:01:08.490Z,12.83
2018-06-24T02:03:39.325Z,12.59
2018-06-24T02:06:09.821Z,12.70
2018-06-24T02:08:40.349Z,12.76
2018-06-24T02:11:10.810Z,12.88
2018-06-24T02:13:41.586Z,12.99
2018-06-24T02:16:12.044Z,12.91
2018-06-24T02:18:42.565Z,13.13
2018-06-24T02:21:12.890Z,13.12
2018-06-24T02:23:42.979Z,13.14
2018-06-24T02:26:13.341Z,13.05
2018-06-24T02:28:44.176Z,12.97
2018-06-24T02:31:14.972Z,13.05
2018-06-24T02:33:45.422Z,13.19
2018-06-24T02:36:16.275Z,13.06
2018-06-24T02:38:46.610Z,13.23
2018-06-24T02:41:17.361Z,13.29
2018-06-24T02:43:47.552Z,13.23
2018-06-24T02:46:17.511Z,13.38
2018-06-24T02:48:47.981Z,13.50
2018-06-24T02:51:18.437Z,13.43
2018-06-24T02:53:48.495Z,13.40
2018-06-24T02:56:18.979Z,13.29
2018-06-24T02:58:49.540Z,13.21
2018-06-24T03:01:20.149Z,13.26
2018-06-24T03:03:50.769Z,13.34
2018-06-24T03:06:21.062Z,13.42
2018-06-24T03:08:51.804Z,13.39
2018-06-24T03:11:22.158Z,13.38
2018-06-24T03:13:52.821Z,13.43
2018-06-24T03:16:23.286Z,13.43
2018-06-24T03:18:54.173Z,13.57
2018-06-24T03:21:24.703Z,13.51
2018-06-24T03:23:55.716Z,13.50
2018-06-24T03:26:26.306Z,13.55
2018-06-24T03:28:57.354Z,13.54
2018-06-24T03:31:28.399Z,13.61
2018-06-24T03:34:00.072Z,13.67
2018-06-24T03:36:30.475Z,13.69
2018-06-24T03:39:01.505Z,13.69
2018-06-24T03:41:32.327Z,13.80
2018-06-24T03:44:03.185Z,14.01
2018-06-24T03:46:33.643Z,14.19
2018-06-24T03:49:04.688Z,14.39
2018-06-24T03:51:35.170Z,14.65
2018-06-24T03:54:05.999Z,15.03
2018-06-24T03:56:36.779Z,15.15
2018-06-24T03:59:07.718Z,15.08
2018-06-24T04:01:38.444Z,15.19
2018-06-24T04:04:08.252Z,15.25
2018-06-24T04:06:39.560Z,15.25
2018-06-24T04:09:09.950Z,15.36
2018-06-24T04:11:39.834Z,15.28
2018-06-24T04:14:10.015Z,15.16
2018-06-24T04:16:39.891Z,15.11
2018-06-24T04:19:10.117Z,15.16
2018-06-24T04:21:40.019Z,15.31
2018-06-24T04:24:09.887Z,15.33
2018-06-24T04:26:40.132Z,15.53
2018-06-24T04:29:10.198Z,15.63
2018-06-24T04:31:40.046Z,15.89
2018-06-24T04:34:09.766Z,15.93
2018-06-24T04:36:39.723Z,15.93
2018-06-24T04:39:11.177Z,16.03
2018-06-24T04:41:41.766Z,16.01
2018-06-24T04:44:11.925Z,15.95
2018-06-24T04:46:41.812Z,15.94
2018-06-24T04:49:11.873Z,15.97
2018-06-24T04:51:42.384Z,15.91
2018-06-24T04:54:13.408Z,15.84
2018-06-24T04:56:44.231Z,15.91
2018-06-24T04:59:15.435Z,16.03
2018-06-24T05:01:46.089Z,16.37
2018-06-24T05:04:17.935Z,16.46
2018-06-24T05:06:48.957Z,16.48
2018-06-24T05:09:20.177Z,16.55
2018-06-24T05:11:50.704Z,16.66
2018-06-24T05:14:21.306Z,16.80
2018-06-24T05:16:51.944Z,16.89
2018-06-24T05:19:21.850Z,17.01
2018-06-24T05:21:52.282Z,17.27
2018-06-24T05:24:22.198Z,17.29
2018-06-24T05:26:52.444Z,17.27
2018-06-24T05:29:22.480Z,17.38
2018-06-24T05:31:52.472Z,17.20
2018-06-24T05:34:22.375Z,17.26
2018-06-24T05:36:52.316Z,17.36
2018-06-24T05:39:22.156Z,17.35
2018-06-24T05:41:52.058Z,17.31
2018-06-24T05:44:21.921Z,17.46
2018-06-24T05:46:51.678Z,17.75
2018-06-24T05:49:21.557Z,17.67
2018-06-24T05:51:51.365Z,17.76
2018-06-24T05:54:21.193Z,17.76
2018-06-24T05:56:51.036Z,17.82
2018-06-24T05:59:20.889Z,17.75
2018-06-24T06:01:50.787Z,17.88
2018-06-24T06:04:20.492Z,18.01
2018-06-24T06:06:50.333Z,18.09
2018-06-24T06:09:20.166Z,18.20
2018-06-24T06:11:49.980Z,18.35
2018-06-24T06:14:19.781Z,18.41
2018-06-24T06:16:49.603Z,18.32
2018-06-24T06:19:19.300Z,18.24
2018-06-24T06:21:49.274Z,18.32
2018-06-24T06:24:19.041Z,18.49
2018-06-24T06:26:49.239Z,18.56
2018-06-24T06:29:19.077Z,18.59
2018-06-24T06:31:48.940Z,18.42
2018-06-24T06:34:18.677Z,18.43
2018-06-24T06:36:48.631Z,18.37
2018-06-24T06:39:18.366Z,18.54
2018-06-24T06:41:48.164Z,18.36
2018-06-24T06:44:17.975Z,18.35
2018-06-24T06:46:47.678Z,18.34
2018-06-24T06:49:17.509Z,18.56
2018-06-24T06:51:47.316Z,18.45
2018-06-24T06:54:17.134Z,18.66
2018-06-24T06:56:46.951Z,18.81
2018-06-24T06:59:16.748Z,18.98
2018-06-24T07:01:46.565Z,19.04
2018-06-24T07:04:16.386Z,19.22
2018-06-24T07:06:46.303Z,19.36
2018-06-24T07:09:16.073Z,19.37
2018-06-24T07:11:45.883Z,19.21
2018-06-24T07:14:16.010Z,19.35
2018-06-24T07:16:45.793Z,19.49
2018-06-24T07:19:15.569Z,19.63
2018-06-24T07:21:45.396Z,19.94
2018-06-24T07:24:15.173Z,19.94
2018-06-24T07:26:44.967Z,20.18
2018-06-24T07:29:14.792Z,20.50
2018-06-24T07:31:44.666Z,20.70
2018-06-24T07:34:14.470Z,20.73
2018-06-24T07:36:44.277Z,21.07
2018-06-24T07:39:14.197Z,21.31
2018-06-24T07:41:44.004Z,21.29
2018-06-24T07:44:13.826Z,21.34
2018-06-24T07:46:43.551Z,21.42
2018-06-24T07:49:13.340Z,21.73
2018-06-24T07:51:43.149Z,21.88
2018-06-24T07:54:12.981Z,22.38
2018-06-24T07:56:42.813Z,22.67
2018-06-24T07:59:12.651Z,23.05
2018-06-24T08:01:42.553Z,23.31
2018-06-24T08:04:12.396Z,23.43
2018-06-24T08:06:42.191Z,23.35
2018-06-24T08:09:13.002Z,23.30
2018-06-24T08:11:43.085Z,23.80
2018-06-24T08:14:12.916Z,23.79
2018-06-24T08:16:42.742Z,23.85
2018-06-24T08:19:12.619Z,24.27
2018-06-24T08:21:42.372Z,24.44
2018-06-24T08:24:12.188Z,24.54
2018-06-24T08:26:41.999Z,24.64
2018-06-24T08:29:11.792Z,24.65
2018-06-24T08:31:41.741Z,24.60
2018-06-24T08:34:11.548Z,24.81
2018-06-24T08:36:41.385Z,25.29
2018-06-24T08:39:12.276Z,25.64
2018-06-24T08:41:42.158Z,25.64
2018-06-24T08:44:11.944Z,26.05
2018-06-24T08:46:41.738Z,26.14
2018-06-24T08:49:11.644Z,26.31
2018-06-24T08:51:41.487Z,26.36
2018-06-24T08:54:11.415Z,26.81
2018-06-24T08:56:41.245Z,26.87
2018-06-24T08:59:11.143Z,27.05
2018-06-24T09:01:40.997Z,27.15
2018-06-24T09:04:10.830Z,27.26
2018-06-24T09:06:40.568Z,27.47
2018-06-24T09:09:11.078Z,27.70
2018-06-24T09:11:40.852Z,27.37
2018-06-24T09:14:10.600Z,27.18
2018-06-24T09:16:40.378Z,27.09
2018-06-24T09:19:10.262Z,27.24
2018-06-24T09:21:40.214Z,27.49
2018-06-24T09:24:10.085Z,27.59
2018-06-24T09:26:39.937Z,27.85
2018-06-24T09:29:09.643Z,27.90
2018-06-24T09:31:39.552Z,28.01
2018-06-24T09:34:09.449Z,28.85
2018-06-24T09:36:39.195Z,28.99
2018-06-24T09:39:11.631Z,28.35
2018-06-24T09:41:41.406Z,28.54
2018-06-24T09:44:11.221Z,28.49
2018-06-24T09:46:41.101Z,28.61
2018-06-24T09:49:10.932Z,28.06
2018-06-24T09:51:40.724Z,28.27
2018-06-24T09:54:10.493Z,28.74
2018-06-24T09:56:40.318Z,28.87
2018-06-24T09:59:11.101Z,28.96
2018-06-24T10:01:40.930Z,29.27
2018-06-24T10:04:10.822Z,29.29
2018-06-24T10:06:40.636Z,28.53
2018-06-24T10:09:11.780Z,28.32
2018-06-24T10:11:41.562Z,27.92
2018-06-24T10:14:11.364Z,28.53
2018-06-24T10:16:41.200Z,29.18
2018-06-24T10:19:11.260Z,29.64
2018-06-24T10:21:41.098Z,28.89
2018-06-24T10:24:10.854Z,27.98
2018-06-24T10:26:40.671Z,28.17
2018-06-24T10:29:10.477Z,29.10
2018-06-24T10:31:40.277Z,29.01
2018-06-24T10:34:10.144Z,29.21
2018-06-24T10:36:40.687Z,29.78
2018-06-24T10:39:11.817Z,30.21
2018-06-24T10:41:41.710Z,30.04
2018-06-24T10:44:11.610Z,29.46
2018-06-24T10:46:41.413Z,28.55
2018-06-24T10:49:11.243Z,29.01
2018-06-24T10:51:40.998Z,29.01
2018-06-24T10:54:10.839Z,28.74
2018-06-24T10:56:40.678Z,28.97
2018-06-24T10:59:10.465Z,29.08
2018-06-24T11:01:40.254Z,29.14
2018-06-24T11:04:10.067Z,29.40
2018-06-24T11:06:39.812Z,29.77
2018-06-24T11:09:10.949Z,29.77
2018-06-24T11:11:40.734Z,30.08
2018-06-24T11:14:10.615Z,30.35
2018-06-24T11:16:40.370Z,30.00
2018-06-24T11:19:10.185Z,29.81
2018-06-24T11:21:40.108Z,29.24
2018-06-24T11:24:09.999Z,29.34
2018-06-24T11:26:39.784Z,29.70
2018-06-24T11:29:09.571Z,29.46
2018-06-24T11:31:39.461Z,29.46
2018-06-24T11:34:09.210Z,29.97
2018-06-24T11:36:39.050Z,29.84
2018-06-24T11:39:10.373Z,31.10
2018-06-24T11:41:40.155Z,31.74
2018-06-24T11:44:09.927Z,31.96
2018-06-24T11:46:39.750Z,31.12
2018-06-24T11:49:09.516Z,31.86
2018-06-24T11:51:39.515Z,31.03
2018-06-24T11:54:09.329Z,31.70
2018-06-24T11:56:39.118Z,31.63
2018-06-24T11:59:08.908Z,31.37
2018-06-24T12:01:38.751Z,31.27
2018-06-24T12:04:08.732Z,30.44
2018-06-24T12:06:38.574Z,30.06
2018-06-24T12:09:11.148Z,30.05
2018-06-24T12:11:40.977Z,30.62
2018-06-24T12:14:11.152Z,31.09
2018-06-24T12:16:41.382Z,31.38
2018-06-24T12:19:11.278Z,31.92
2018-06-24T12:21:41.006Z,32.08
2018-06-24T12:24:11.172Z,31.98
2018-06-24T12:26:40.957Z,32.40
2018-06-24T12:29:10.718Z,32.39
2018-06-24T12:31:40.505Z,32.58
2018-06-24T12:34:10.290Z,32.64
2018-06-24T12:36:42.025Z,32.22
2018-06-24T12:39:13.880Z,31.23
2018-06-24T12:41:43.794Z,30.72
2018-06-24T12:44:13.703Z,30.33
2018-06-24T12:46:43.546Z,29.71
2018-06-24T12:49:13.368Z,29.67
2018-06-24T12:51:43.138Z,29.32
2018-06-24T12:54:12.994Z,29.86
2018-06-24T12:56:42.971Z,29.48
2018-06-24T12:59:12.954Z,29.78
2018-06-24T13:01:42.628Z,30.44
2018-06-24T13:04:12.514Z,30.76
2018-06-24T13:06:42.261Z,31.60
2018-06-24T13:09:12.135Z,30.80
2018-06-24T13:11:41.912Z,30.95
2018-06-24T13:14:11.699Z,31.06
2018-06-24T13:16:41.605Z,31.07
2018-06-24T13:19:11.396Z,29.55
2018-06-24T13:21:41.174Z,28.81
2018-06-24T13:24:11.049Z,28.46
2018-06-24T13:26:40.897Z,28.48
2018-06-24T13:29:10.789Z,28.40
2018-06-24T13:31:40.687Z,28.18
2018-06-24T13:34:10.559Z,28.34
2018-06-24T13:36:40.348Z,28.35
2018-06-24T13:39:11.288Z,28.06
2018-06-24T13:41:41.093Z,28.17
2018-06-24T13:44:10.932Z,28.76
2018-06-24T13:46:40.805Z,29.72
2018-06-24T13:49:10.639Z,29.98
2018-06-24T13:51:40.397Z,30.30
2018-06-24T13:54:10.525Z,30.03
2018-06-24T13:56:40.356Z,30.17
2018-06-24T13:59:10.158Z,30.56
2018-06-24T14:01:40.038Z,29.96
2018-06-24T14:04:09.776Z,29.43
2018-06-24T14:06:39.541Z,29.20
2018-06-24T14:09:11.679Z,29.30
2018-06-24T14:11:41.647Z,29.30
2018-06-24T14:14:11.628Z,29.78
2018-06-24T14:16:41.498Z,29.64
2018-06-24T14:19:11.332Z,29.30
2018-06-24T14:21:41.155Z,28.87
2018-06-24T14:24:10.937Z,29.08
2018-06-24T14:26:40.814Z,28.78
2018-06-24T14:29:10.610Z,28.88
2018-06-24T14:31:40.476Z,29.05
2018-06-24T14:34:10.258Z,29.78
2018-06-24T14:36:40.082Z,29.91
2018-06-24T14:39:10.851Z,29.61
2018-06-24T14:41:41.111Z,28.79
2018-06-24T14:44:10.953Z,28.13
2018-06-24T14:46:40.728Z,28.20
2018-06-24T14:49:10.542Z,28.48
2018-06-24T14:51:40.438Z,28.83
2018-06-24T14:54:10.254Z,29.17
2018-06-24T14:56:40.171Z,29.28
2018-06-24T14:59:09.906Z,29.78
2018-06-24T15:01:39.746Z,30.57
2018-06-24T15:04:09.573Z,30.14
2018-06-24T15:06:39.357Z,30.25
2018-06-24T15:09:11.388Z,30.67
2018-06-24T15:11:41.249Z,30.54
2018-06-24T15:14:11.005Z,30.49
2018-06-24T15:16:40.853Z,30.77
2018-06-24T15:19:10.636Z,30.88
2018-06-24T15:21:40.575Z,30.47
2018-06-24T15:24:10.368Z,30.03
2018-06-24T15:26:40.107Z,30.07
2018-06-24T15:29:09.906Z,29.95
2018-06-24T15:31:39.670Z,29.99
2018-06-24T15:34:09.504Z,29.92
2018-06-24T15:36:39.291Z,29.86
2018-06-24T15:39:11.297Z,29.90
2018-06-24T15:41:41.460Z,29.76
2018-06-24T15:44:11.284Z,29.74
2018-06-24T15:46:41.168Z,28.96
2018-06-24T15:49:10.924Z,28.67
2018-06-24T15:51:40.705Z,28.41
2018-06-24T15:54:10.480Z,28.41
2018-06-24T15:56:40.357Z,28.56
2018-06-24T15:59:10.151Z,28.57
2018-06-24T16:01:39.918Z,27.95
2018-06-24T16:04:09.850Z,27.69
2018-06-24T16:06:39.727Z,27.68
2018-06-24T16:09:11.703Z,27.89
2018-06-24T16:11:41.508Z,27.87
2018-06-24T16:14:11.372Z,27.54
2018-06-24T16:16:41.186Z,27.69
2018-06-24T16:19:10.971Z,27.60
2018-06-24T16:21:40.851Z,27.66
2018-06-24T16:24:10.698Z,27.85
2018-06-24T16:26:40.600Z,27.74
2018-06-24T16:29:10.425Z,27.85
2018-06-24T16:31:40.257Z,27.87
2018-06-24T16:34:10.037Z,27.98
2018-06-24T16:36:39.841Z,27.91
2018-06-24T16:39:11.716Z,28.02
2018-06-24T16:41:41.632Z,28.05
2018-06-24T16:44:12.091Z,27.87
2018-06-24T16:46:41.831Z,27.89
2018-06-24T16:49:11.582Z,27.79
2018-06-24T16:51:41.363Z,27.67
2018-06-24T16:54:11.183Z,27.55
2018-06-24T16:56:41.095Z,27.44
2018-06-24T16:59:10.947Z,27.26
2018-06-24T17:01:40.869Z,27.25
2018-06-24T17:04:10.717Z,27.14
2018-06-24T17:06:40.458Z,26.76
2018-06-24T17:09:11.016Z,26.58
2018-06-24T17:11:40.945Z,26.54
2018-06-24T17:14:10.784Z,26.22
2018-06-24T17:16:40.643Z,25.99
2018-06-24T17:19:10.476Z,25.84
2018-06-24T17:21:40.243Z,25.78
2018-06-24T17:24:10.010Z,25.42
2018-06-24T17:26:39.824Z,25.10
2018-06-24T17:29:09.674Z,25.13
2018-06-24T17:31:39.456Z,25.17
2018-06-24T17:34:09.232Z,25.01
2018-06-24T17:36:38.998Z,24.75
2018-06-24T17:39:11.772Z,24.92
2018-06-24T17:41:42.209Z,24.77
2018-06-24T17:44:12.060Z,24.60
2018-06-24T17:46:41.830Z,24.50
2018-06-24T17:49:11.655Z,24.48
2018-06-24T17:51:41.570Z,24.57
2018-06-24T17:54:11.391Z,24.48
2018-06-24T17:56:41.217Z,24.48
2018-06-24T17:59:11.014Z,24.23
2018-06-24T18:01:40.852Z,24.28
2018-06-24T18:04:10.776Z,24.17
2018-06-24T18:06:40.571Z,24.04
2018-06-24T18:09:11.960Z,23.91
2018-06-24T18:11:41.804Z,23.92
2018-06-24T18:14:11.711Z,23.87
2018-06-24T18:16:41.548Z,23.82
2018-06-24T18:19:11.406Z,23.64
2018-06-24T18:21:41.202Z,23.53
2018-06-24T18:24:10.992Z,23.42
2018-06-24T18:26:40.793Z,23.31
2018-06-24T18:29:10.606Z,23.13
2018-06-24T18:31:40.409Z,23.00
2018-06-24T18:34:10.246Z,22.91
2018-06-24T18:36:40.036Z,22.84
2018-06-24T18:39:10.339Z,22.69
2018-06-24T18:41:40.116Z,22.71
2018-06-24T18:44:10.007Z,22.54
2018-06-24T18:46:39.937Z,22.41
2018-06-24T18:49:09.756Z,22.35
2018-06-24T18:51:39.611Z,22.20
2018-06-24T18:54:09.434Z,22.26
2018-06-24T18:56:39.254Z,22.18
2018-06-24T18:59:09.007Z,22.32
2018-06-24T19:01:38.822Z,22.29
2018-06-24T19:04:08.631Z,22.19
2018-06-24T19:06:38.383Z,22.28
2018-06-24T19:09:11.752Z,22.11
2018-06-24T19:11:41.799Z,22.11
2018-06-24T19:14:11.632Z,22.22
2018-06-24T19:16:41.909Z,22.15
2018-06-24T19:19:11.806Z,22.05
2018-06-24T19:21:41.685Z,22.03
2018-06-24T19:24:11.626Z,21.86
2018-06-24T19:26:41.424Z,21.90
2018-06-24T19:29:11.239Z,21.90
2018-06-24T19:31:41.105Z,21.82
2018-06-24T19:34:10.899Z,21.79
2018-06-24T19:36:40.733Z,21.66
2018-06-24T19:39:12.110Z,21.49
2018-06-24T19:41:42.693Z,21.58
2018-06-24T19:44:12.477Z,21.72
2018-06-24T19:46:42.322Z,21.61
2018-06-24T19:49:12.119Z,21.47
2018-06-24T19:51:41.915Z,21.36
2018-06-24T19:54:11.818Z,21.44
2018-06-24T19:56:41.737Z,21.35
2018-06-24T19:59:11.707Z,21.10
2018-06-24T20:01:41.537Z,21.08
2018-06-24T20:04:11.454Z,20.94
2018-06-24T20:06:41.252Z,20.95
2018-06-24T20:09:11.549Z,20.95
2018-06-24T20:11:41.384Z,20.78
2018-06-24T20:14:11.175Z,20.78
2018-06-24T20:16:41.177Z,20.83
2018-06-24T20:19:11.043Z,20.73
2018-06-24T20:21:40.922Z,20.66
2018-06-24T20:24:10.829Z,20.54
2018-06-24T20:26:40.817Z,20.40
2018-06-24T20:29:10.700Z,20.56
2018-06-24T20:31:40.617Z,20.29
2018-06-24T20:34:10.409Z,20.19
2018-06-24T20:36:40.292Z,20.08
2018-06-24T20:39:10.506Z,20.06
2018-06-24T20:41:40.393Z,19.96
2018-06-24T20:44:10.324Z,19.95
2018-06-24T20:46:40.182Z,19.82
2018-06-24T20:49:09.922Z,19.80
2018-06-24T20:51:39.752Z,19.61
2018-06-24T20:54:09.639Z,19.50
2018-06-24T20:56:39.506Z,19.41
2018-06-24T20:59:09.425Z,19.52
2018-06-24T21:01:39.270Z,19.41
2018-06-24T21:04:09.966Z,19.34
2018-06-24T21:06:40.813Z,19.32
2018-06-24T21:09:12.160Z,19.31
2018-06-24T21:11:42.509Z,19.26
2018-06-24T21:14:12.317Z,19.33
2018-06-24T21:16:42.771Z,19.26
2018-06-24T21:19:12.710Z,19.16
2018-06-24T21:21:42.865Z,19.13
2018-06-24T21:24:13.450Z,19.06
2018-06-24T21:26:43.333Z,19.14
2018-06-24T21:29:14.351Z,19.11
2018-06-24T21:31:44.665Z,18.92
2018-06-24T21:34:15.319Z,18.99
2018-06-24T21:36:46.050Z,19.01
2018-06-24T21:39:16.866Z,19.01
2018-06-24T21:41:47.602Z,18.91
2018-06-24T21:44:18.352Z,18.71
2018-06-24T21:46:49.458Z,18.74
2018-06-24T21:49:20.262Z,18.89
2018-06-24T21:51:51.880Z,18.73
2018-06-24T21:54:22.553Z,18.80
2018-06-24T21:56:53.286Z,18.62
2018-06-24T21:59:24.203Z,18.70
2018-06-24T22:01:55.123Z,18.64
2018-06-24T22:04:26.193Z,18.51
2018-06-24T22:06:56.852Z,18.60
2018-06-24T22:09:27.047Z,18.45
2018-06-24T22:11:57.771Z,18.34
2018-06-24T22:14:28.600Z,18.45
2018-06-24T22:16:59.423Z,18.38
2018-06-24T22:19:30.224Z,18.36
2018-06-24T22:22:01.856Z,18.33
2018-06-24T22:24:32.434Z,18.16
2018-06-24T22:27:03.186Z,18.24
2018-06-24T22:29:33.517Z,18.16
2018-06-24T22:32:04.156Z,18.12
2018-06-24T22:34:35.043Z,18.22
2018-06-24T22:37:05.953Z,18.14
2018-06-24T22:39:36.865Z,18.34
2018-06-24T22:42:07.430Z,18.21
2018-06-24T22:44:37.824Z,18.19
2018-06-24T22:47:08.547Z,18.20
2018-06-24T22:49:38.817Z,18.22
2018-06-24T22:52:09.760Z,18.22
2018-06-24T22:54:40.027Z,18.27
2018-06-24T22:57:10.475Z,18.25
2018-06-24T22:59:51.930Z,18.25
2018-06-24T23:02:23.056Z,18.20
2018-06-24T23:04:53.791Z,18.23
2018-06-24T23:07:24.737Z,18.21
2018-06-24T23:09:55.600Z,18.28
2018-06-24T23:12:26.155Z,18.12
2018-06-24T23:14:56.972Z,18.01
2018-06-24T23:17:28.030Z,17.93
2018-06-24T23:19:59.130Z,18.08
2018-06-24T23:22:29.860Z,18.02
2018-06-24T23:25:00.592Z,18.04
2018-06-24T23:27:32.237Z,18.08
2018-06-24T23:30:02.821Z,17.91
2018-06-24T23:32:33.847Z,17.82
2018-06-24T23:35:04.834Z,17.79
2018-06-24T23:37:35.743Z,17.79
2018-06-24T23:40:06.340Z,17.92
2018-06-24T23:42:37.237Z,17.76
2018-06-24T23:45:08.009Z,17.78
2018-06-24T23:47:38.100Z,17.70
2018-06-24T23:50:09.137Z,17.81
2018-06-24T23:52:39.845Z,17.85
2018-06-24T23:55:10.532Z,17.84
2018-06-24T23:57:41.424Z,17.96
